createdAt,value
2019-01-24T20:46:51.883Z,82.80
2019-01-24T20:49:23.316Z,82.80
2019-01-24T20:51:53.969Z,83.00
2019-01-24T20:54:24.105Z,82.80
2019-01-24T20:56:54.532Z,82.80
2019-01-24T20:59:25.401Z,82.90
2019-01-24T21:01:55.531Z,83.00
2019-01-24T21:04:25.862Z,83.00
2019-01-24T21:06:56.414Z,83.00
2019-01-24T21:09:26.360Z,83.20
2019-01-24T21:11:58.800Z,83.30
2019-01-24T21:14:29.014Z,83.30
2019-01-24T21:16:59.382Z,83.40
2019-01-24T21:19:30.963Z,83.50
2019-01-24T21:22:01.559Z,83.40
2019-01-24T21:24:32.167Z,83.40
2019-01-24T21:27:03.097Z,83.40
2019-01-24T21:29:35.467Z,83.60
2019-01-24T21:32:07.210Z,83.60
2019-01-24T21:34:38.568Z,83.30
2019-01-24T21:37:10.550Z,83.30
2019-01-24T21:39:40.506Z,83.30
2019-01-24T21:42:12.254Z,83.50
2019-01-24T21:44:43.406Z,83.30
2019-01-24T21:47:14.332Z,83.50
2019-01-24T21:49:45.543Z,83.60
2019-01-24T21:52:15.864Z,83.90
2019-01-24T21:54:48.681Z,83.90
2019-01-24T21:57:19.331Z,83.60
2019-01-24T21:59:50.101Z,83.60
2019-01-24T22:02:21.775Z,83.30
2019-01-24T22:04:53.152Z,83.30
2019-01-24T22:07:24.413Z,83.40
2019-01-24T22:09:56.977Z,83.30
2019-01-24T22:12:29.810Z,83.10
2019-01-24T22:14:59.516Z,83.10
2019-01-24T22:17:29.273Z,83.20
2019-01-24T22:19:59.165Z,83.20
2019-01-24T22:22:29.060Z,83.20
2019-01-24T22:24:58.783Z,83.30
2019-01-24T22:27:28.548Z,83.10
2019-01-24T22:29:58.236Z,83.50
2019-01-24T22:32:28.882Z,83.40
2019-01-24T22:34:58.621Z,83.30
2019-01-24T22:37:28.385Z,84.00
2019-01-24T22:39:58.178Z,83.10
2019-01-24T22:42:27.932Z,83.00
2019-01-24T22:44:57.739Z,83.20
2019-01-24T22:47:27.503Z,83.20
2019-01-24T22:49:57.238Z,83.20
2019-01-24T22:52:27.018Z,83.40
2019-01-24T22:54:56.770Z,83.70
2019-01-24T22:57:26.537Z,83.40
2019-01-24T22:59:56.318Z,83.20
2019-01-24T23:02:26.145Z,83.60
2019-01-24T23:04:55.995Z,83.40
2019-01-24T23:07:25.659Z,83.10
2019-01-24T23:09:55.612Z,83.30
2019-01-24T23:12:25.452Z,83.40
2019-01-24T23:14:55.235Z,83.10
2019-01-24T23:17:26.599Z,83.00
2019-01-24T23:19:56.370Z,83.00
2019-01-24T23:22:26.051Z,83.00
2019-01-24T23:24:55.817Z,82.80
2019-01-24T23:27:25.496Z,82.70
2019-01-24T23:29:55.244Z,82.50
2019-01-24T23:32:24.985Z,82.40
2019-01-24T23:34:54.678Z,82.50
2019-01-24T23:37:24.384Z,82.40
2019-01-24T23:39:54.069Z,82.80
2019-01-24T23:42:23.852Z,83.00
2019-01-24T23:44:53.627Z,83.00
2019-01-24T23:47:23.431Z,83.00
2019-01-24T23:49:53.128Z,82.80
2019-01-24T23:52:22.909Z,82.80
2019-01-24T23:54:52.663Z,82.70
2019-01-24T23:57:23.931Z,82.50
2019-01-24T23:59:54.009Z,82.40
